createdAt,value
2022-08-31T00:02:36.146Z,101665.63
2022-08-31T00:07:37.997Z,101664.72
2022-08-31T00:12:42.685Z,101660.34
2022-08-31T00:17:45.252Z,101661.22
2022-08-31T00:22:48.600Z,101658.59
2022-08-31T00:27:50.305Z,101659.47
2022-08-31T00:32:52.075Z,101660.31
2022-08-31T00:37:54.100Z,101661.22
2022-08-31T00:42:55.915Z,101666.47
2022-08-31T00:47:57.575Z,101674.38
2022-08-31T00:53:00.249Z,101672.66
2022-08-31T00:58:04.140Z,101684.06
2022-08-31T01:03:06.484Z,101671.75
2022-08-31T01:08:08.162Z,101671.75
2022-08-31T01:13:12.924Z,101675.25
2022-08-31T01:18:14.652Z,101658.53
2022-08-31T01:23:29.342Z,101656.78
2022-08-31T01:28:31.038Z,101654.19
2022-08-31T01:33:33.060Z,101659.47
2022-08-31T01:38:35.408Z,101654.19
2022-08-31T01:43:37.207Z,101662.94
2022-08-31T01:48:41.499Z,101663.84
2022-08-31T01:53:45.654Z,101657.72
2022-08-31T01:58:50.548Z,101663.00
2022-08-31T02:04:11.111Z,101664.72
2022-08-31T02:09:13.073Z,101664.72
2022-08-31T02:14:15.799Z,101668.25
2022-08-31T02:19:17.984Z,101675.25
2022-08-31T02:24:19.685Z,101676.13
2022-08-31T02:29:21.665Z,101670.88
2022-08-31T02:34:23.391Z,101662.97
2022-08-31T02:39:25.109Z,101661.19
2022-08-31T02:44:26.838Z,101662.13
2022-08-31T02:49:28.569Z,101666.47
2022-08-31T02:54:30.318Z,101669.09
2022-08-31T02:59:32.024Z,101674.34
2022-08-31T03:04:33.783Z,101665.56
2022-08-31T03:09:35.487Z,101659.41
2022-08-31T03:14:37.590Z,101651.53
2022-08-31T03:19:39.288Z,101652.41
2022-08-31T03:24:40.982Z,101653.28
2022-08-31T03:29:42.774Z,101656.75
2022-08-31T03:34:58.213Z,101650.63
2022-08-31T03:40:00.020Z,101657.63
2022-08-31T03:45:01.944Z,101655.88
2022-08-31T03:50:07.444Z,101655.84
2022-08-31T03:55:21.724Z,101654.09
2022-08-31T04:00:25.478Z,101666.34
2022-08-31T04:05:37.269Z,101668.06
2022-08-31T04:10:58.129Z,101670.66
2022-08-31T04:16:35.202Z,101668.88
2022-08-31T04:22:08.352Z,101679.34
2022-08-31T04:27:14.623Z,101674.06
2022-08-31T04:32:16.468Z,101678.41
2022-08-31T04:37:18.399Z,101682.72
2022-08-31T04:42:20.315Z,101685.25
2022-08-31T04:47:22.141Z,101697.56
2022-08-31T04:52:28.130Z,101698.41
2022-08-31T04:57:31.410Z,101715.03
2022-08-31T05:02:35.720Z,101723.78
2022-08-31T05:07:46.040Z,101719.38
2022-08-31T05:12:47.872Z,101722.84
2022-08-31T05:17:49.790Z,101728.09
2022-08-31T05:22:51.680Z,101723.75
2022-08-31T05:27:55.450Z,101719.38
2022-08-31T05:32:57.190Z,101721.97
2022-08-31T05:37:58.925Z,101729.06
2022-08-31T05:43:00.588Z,101730.00
2022-08-31T05:48:02.509Z,101732.78
2022-08-31T05:53:06.938Z,101734.53
2022-08-31T05:58:09.176Z,101738.13
2022-08-31T06:03:11.650Z,101733.75
2022-08-31T06:08:15.438Z,101731.09
2022-08-31T06:13:18.449Z,101732.88
2022-08-31T06:18:21.021Z,101736.41
2022-08-31T06:23:24.999Z,101741.72
2022-08-31T06:28:26.910Z,101747.00
2022-08-31T06:33:29.301Z,101755.78
2022-08-31T06:38:49.348Z,101748.84
2022-08-31T06:44:12.268Z,101748.00
2022-08-31T06:49:29.958Z,101748.91
2022-08-31T06:54:32.366Z,101754.19
2022-08-31T06:59:53.693Z,101746.31
2022-08-31T07:05:27.471Z,101754.28
2022-08-31T07:10:30.056Z,101754.28
2022-08-31T07:15:31.836Z,101761.31
2022-08-31T07:20:33.990Z,101757.78
2022-08-31T07:25:37.046Z,101769.22
2022-08-31T07:30:41.985Z,101776.22
2022-08-31T07:35:45.366Z,101763.94
2022-08-31T07:41:13.458Z,101769.19
2022-08-31T07:46:16.462Z,101771.81
2022-08-31T07:51:23.507Z,101760.34
2022-08-31T07:56:46.500Z,101767.34
2022-08-31T08:01:50.021Z,101771.72
2022-08-31T08:07:00.159Z,101779.59
2022-08-31T08:12:25.178Z,101777.81
2022-08-31T08:17:37.743Z,101779.53
2022-08-31T08:22:54.305Z,101771.56
2022-08-31T08:28:22.628Z,101772.41
2022-08-31T08:33:30.788Z,101782.94
2022-08-31T08:38:32.748Z,101782.00
2022-08-31T08:43:38.290Z,101790.78
2022-08-31T08:48:41.159Z,101796.03
2022-08-31T08:53:46.986Z,101797.69
2022-08-31T08:59:02.139Z,101800.25
2022-08-31T09:04:23.691Z,101797.50
2022-08-31T09:09:46.569Z,101792.09
2022-08-31T09:15:11.210Z,101791.97
2022-08-31T09:20:16.480Z,101792.75
2022-08-31T09:25:32.651Z,101791.75
2022-08-31T09:30:43.973Z,101788.94
2022-08-31T09:35:45.767Z,101786.09
2022-08-31T09:40:48.499Z,101791.22
2022-08-31T09:46:07.202Z,101791.94
2022-08-31T09:51:09.048Z,101792.78
2022-08-31T09:56:14.260Z,101779.47
2022-08-31T10:01:25.756Z,101779.44
2022-08-31T10:06:45.611Z,101774.91
2022-08-31T10:11:48.743Z,101771.16
2022-08-31T10:17:04.084Z,101769.31
2022-08-31T10:22:25.320Z,101765.78
2022-08-31T10:27:32.339Z,101763.75
2022-08-31T10:32:42.480Z,101749.22
2022-08-31T10:38:24.135Z,101751.50
2022-08-31T10:43:31.714Z,101749.63
2022-08-31T10:48:33.999Z,101753.13
2022-08-31T10:53:40.112Z,101760.00
2022-08-31T10:59:06.508Z,101737.75
2022-08-31T11:04:27.384Z,101748.13
2022-08-31T11:09:59.586Z,101742.78
2022-08-31T11:15:10.363Z,101742.59
2022-08-31T11:20:24.235Z,101737.97
2022-08-31T11:25:48.875Z,101720.94
2022-08-31T11:30:52.190Z,101719.81
2022-08-31T11:36:07.071Z,101715.81
2022-08-31T11:41:36.201Z,101707.63
2022-08-31T11:46:37.851Z,101714.44
2022-08-31T11:51:41.923Z,101708.66
2022-08-31T11:56:45.223Z,101696.41
2022-08-31T12:01:46.931Z,101687.91
2022-08-31T12:06:48.437Z,101681.75
2022-08-31T12:12:15.921Z,101675.75
2022-08-31T12:17:23.064Z,101671.66
2022-08-31T12:23:01.640Z,101665.31
2022-08-31T12:28:30.777Z,101665.66
2022-08-31T12:33:32.432Z,101658.56
2022-08-31T12:38:34.122Z,101655.06
2022-08-31T12:43:39.222Z,101652.88
2022-08-31T12:48:46.864Z,101642.75
2022-08-31T12:53:51.396Z,101647.53
2022-08-31T12:59:05.330Z,101653.06
2022-08-31T13:04:07.034Z,101653.34
2022-08-31T13:09:09.186Z,101651.16
2022-08-31T13:14:14.685Z,101649.19
2022-08-31T13:19:29.378Z,101635.22
2022-08-31T13:24:41.519Z,101625.13
2022-08-31T13:29:46.189Z,101627.66
2022-08-31T13:34:49.220Z,101631.34
2022-08-31T13:39:50.947Z,101619.69
2022-08-31T13:44:54.742Z,101606.59
2022-08-31T13:50:08.808Z,101616.84
2022-08-31T13:55:11.794Z,101612.47
2022-08-31T14:00:29.205Z,101605.88
2022-08-31T14:05:32.969Z,101588.91
2022-08-31T14:10:40.625Z,101608.03
2022-08-31T14:15:50.392Z,101609.16
2022-08-31T14:21:22.682Z,101606.91
2022-08-31T14:26:28.027Z,101612.41
2022-08-31T14:31:37.103Z,101606.66
2022-08-31T14:36:50.285Z,101596.78
2022-08-31T14:41:53.337Z,101593.19
2022-08-31T14:46:55.221Z,101588.28
2022-08-31T14:52:04.509Z,101585.63
2022-08-31T14:57:10.046Z,101581.44
2022-08-31T15:02:12.874Z,101589.25
2022-08-31T15:07:15.410Z,101577.16
2022-08-31T15:12:17.164Z,101576.50
2022-08-31T15:17:20.443Z,101583.13
2022-08-31T15:22:24.207Z,101574.28
2022-08-31T15:27:28.679Z,101562.78
2022-08-31T15:32:31.489Z,101575.94
2022-08-31T15:37:33.237Z,101574.94
2022-08-31T15:42:38.246Z,101566.78
2022-08-31T15:47:58.603Z,101562.44
2022-08-31T15:53:09.458Z,101562.56
2022-08-31T15:58:12.729Z,101557.34
2022-08-31T16:03:14.613Z,101550.69
2022-08-31T16:08:16.757Z,101548.06
2022-08-31T16:13:19.400Z,101541.56
2022-08-31T16:18:21.959Z,101548.38
2022-08-31T16:23:24.861Z,101547.44
2022-08-31T16:28:26.700Z,101540.22
2022-08-31T16:33:30.399Z,101537.03
2022-08-31T16:38:32.416Z,101534.88
2022-08-31T16:43:34.257Z,101526.00
2022-08-31T16:48:54.683Z,101529.59
2022-08-31T16:53:59.258Z,101534.97
2022-08-31T16:59:01.274Z,101538.38
2022-08-31T17:04:07.675Z,101544.81
2022-08-31T17:09:11.231Z,101537.16
2022-08-31T17:14:16.404Z,101549.06
2022-08-31T17:19:19.862Z,101551.56
2022-08-31T17:24:23.525Z,101549.94
2022-08-31T17:29:26.958Z,101551.66
2022-08-31T17:34:31.194Z,101553.56
2022-08-31T17:39:32.986Z,101564.66
2022-08-31T17:44:34.864Z,101557.91
2022-08-31T17:49:38.055Z,101563.66
2022-08-31T17:54:42.117Z,101573.72
2022-08-31T17:59:46.576Z,101575.06
2022-08-31T18:04:49.111Z,101588.81
2022-08-31T18:09:51.058Z,101583.56
2022-08-31T18:14:53.818Z,101591.50
2022-08-31T18:19:55.696Z,101588.06
2022-08-31T18:24:58.261Z,101594.94
2022-08-31T18:30:00.826Z,101588.38
2022-08-31T18:35:05.964Z,101591.59
2022-08-31T18:40:27.342Z,101610.81
2022-08-31T18:45:30.833Z,101622.09
2022-08-31T18:50:35.013Z,101612.03
2022-08-31T18:55:39.449Z,101624.06
2022-08-31T19:00:41.671Z,101624.41
2022-08-31T19:05:43.596Z,101624.72
2022-08-31T19:10:45.625Z,101619.81
2022-08-31T19:15:51.065Z,101626.28
2022-08-31T19:20:52.920Z,101629.13
2022-08-31T19:25:54.802Z,101622.25
2022-08-31T19:30:56.666Z,101619.81
2022-08-31T19:36:04.623Z,101633.25
2022-08-31T19:41:23.229Z,101644.94
2022-08-31T19:46:25.534Z,101635.41
2022-08-31T19:51:28.110Z,101645.28
2022-08-31T19:56:30.618Z,101641.06
2022-08-31T20:01:35.357Z,101643.88
2022-08-31T20:06:37.834Z,101639.59
2022-08-31T20:11:39.672Z,101646.69
2022-08-31T20:16:43.303Z,101652.94
2022-08-31T20:21:45.260Z,101652.09
2022-08-31T20:26:51.925Z,101658.31
2022-08-31T20:31:55.509Z,101653.91
2022-08-31T20:37:01.159Z,101655.69
2022-08-31T20:42:03.740Z,101653.97
2022-08-31T20:47:28.203Z,101662.75
2022-08-31T20:52:31.923Z,101668.06
2022-08-31T20:57:34.990Z,101667.19
2022-08-31T21:02:39.737Z,101664.56
2022-08-31T21:07:41.472Z,101673.41
2022-08-31T21:12:43.144Z,101676.91
2022-08-31T21:17:45.985Z,101668.16
2022-08-31T21:22:47.669Z,101678.75
2022-08-31T21:27:49.351Z,101668.22
2022-08-31T21:32:52.111Z,101673.50
2022-08-31T21:37:53.807Z,101681.38
2022-08-31T21:42:55.735Z,101680.50
2022-08-31T21:47:57.607Z,101679.66
2022-08-31T21:53:00.571Z,101684.91
2022-08-31T21:58:02.509Z,101690.16
2022-08-31T22:03:05.073Z,101691.06
2022-08-31T22:08:06.788Z,101698.91
2022-08-31T22:13:09.025Z,101697.16
2022-08-31T22:18:58.245Z,101692.81
2022-08-31T22:23:32.588Z,101699.78
2022-08-31T22:28:34.673Z,101699.75
2022-08-31T22:33:37.403Z,101708.50
2022-08-31T22:38:42.774Z,101708.50
2022-08-31T22:43:44.614Z,101721.63
2022-08-31T22:48:46.758Z,101712.84
2022-08-31T22:53:51.475Z,101723.38
2022-08-31T22:58:54.154Z,101718.97
2022-08-31T23:03:57.024Z,101713.72
2022-08-31T23:08:59.940Z,101708.44
2022-08-31T23:14:05.435Z,101710.09
2022-08-31T23:19:14.170Z,101710.88
2022-08-31T23:24:21.605Z,101707.31
2022-08-31T23:29:24.284Z,101690.56
2022-08-31T23:34:26.180Z,101696.59
2022-08-31T23:39:27.896Z,101692.16
2022-08-31T23:44:30.043Z,101696.47
2022-08-31T23:49:31.777Z,101688.59
2022-08-31T23:54:36.152Z,101697.25
2022-08-31T23:59:39.609Z,101684.94
